createdAt,value
2023-03-07T00:00:18.124Z,83.58
2023-03-07T00:01:18.148Z,83.48
2023-03-07T00:02:18.166Z,83.00
2023-03-07T00:03:18.528Z,83.29
2023-03-07T00:05:18.261Z,83.86
2023-03-07T00:06:18.297Z,83.86
2023-03-07T00:07:18.309Z,84.34
2023-03-07T00:08:18.346Z,83.48
2023-03-07T00:09:18.354Z,83.48
2023-03-07T00:10:18.640Z,84.25
2023-03-07T00:11:18.408Z,84.15
2023-03-07T00:13:18.467Z,83.29
2023-03-07T00:14:18.492Z,83.58
2023-03-07T00:15:18.518Z,82.90
2023-03-07T00:17:18.565Z,84.05
2023-03-07T00:18:18.899Z,84.72
2023-03-07T00:19:18.626Z,84.91
2023-03-07T00:20:18.653Z,84.05
2023-03-07T00:21:18.677Z,84.25
2023-03-07T00:22:18.728Z,84.63
2023-03-07T00:23:18.736Z,84.82
2023-03-07T00:24:19.063Z,84.91
2023-03-07T00:25:18.782Z,84.72
2023-03-07T00:27:18.840Z,84.63
2023-03-07T00:28:18.876Z,84.63
2023-03-07T00:29:18.902Z,84.82
2023-03-07T00:31:18.980Z,85.01
2023-03-07T00:32:19.347Z,84.53
2023-03-07T00:33:19.021Z,83.86
2023-03-07T00:34:19.029Z,84.05
2023-03-07T00:35:19.113Z,84.25
2023-03-07T00:36:19.114Z,83.67
2023-03-07T00:37:19.159Z,83.67
2023-03-07T00:38:19.157Z,84.05
2023-03-07T00:39:19.457Z,84.25
2023-03-07T00:41:19.220Z,84.63
2023-03-07T00:42:19.542Z,83.76
2023-03-07T00:43:19.272Z,84.05
2023-03-07T00:44:19.301Z,84.34
2023-03-07T00:45:19.319Z,84.34
2023-03-07T00:47:19.672Z,84.20
2023-03-07T00:48:20.759Z,83.53
2023-03-07T00:49:19.429Z,83.82
2023-03-07T00:50:19.453Z,83.25
2023-03-07T00:51:19.490Z,83.63
2023-03-07T00:52:19.506Z,83.72
2023-03-07T00:54:19.590Z,84.11
2023-03-07T00:55:19.591Z,84.11
2023-03-07T00:56:19.606Z,84.49
2023-03-07T00:57:19.639Z,84.58
2023-03-07T00:58:19.709Z,83.92
2023-03-07T00:59:19.699Z,84.58
2023-03-07T01:00:20.026Z,84.88
2023-03-07T01:01:19.876Z,84.78
2023-03-07T01:02:19.772Z,84.78
2023-03-07T01:04:19.864Z,84.88
2023-03-07T01:05:19.851Z,84.49
2023-03-07T01:06:19.906Z,83.82
2023-03-07T01:07:20.212Z,84.39
2023-03-07T01:08:19.926Z,84.11
2023-03-07T01:09:19.954Z,84.49
2023-03-07T01:10:20.001Z,83.92
2023-03-07T01:11:20.022Z,83.63
2023-03-07T01:12:20.043Z,84.49
2023-03-07T01:13:20.062Z,84.39
2023-03-07T01:14:20.403Z,84.68
2023-03-07T01:16:20.281Z,84.58
2023-03-07T01:17:20.168Z,84.68
2023-03-07T01:18:20.195Z,84.01
2023-03-07T01:19:20.233Z,84.58
2023-03-07T01:20:20.261Z,85.16
2023-03-07T01:21:20.581Z,84.68
2023-03-07T01:22:20.304Z,84.68
2023-03-07T01:23:20.329Z,85.06
2023-03-07T01:24:20.450Z,84.88
2023-03-07T01:26:20.430Z,84.58
2023-03-07T01:27:20.432Z,84.68
2023-03-07T01:28:20.765Z,84.20
2023-03-07T01:29:20.482Z,84.01
2023-03-07T01:31:20.577Z,84.30
2023-03-07T01:32:20.613Z,84.58
2023-03-07T01:33:20.591Z,84.68
2023-03-07T01:34:20.614Z,83.82
2023-03-07T01:35:20.939Z,84.68
2023-03-07T01:36:20.776Z,84.68
2023-03-07T01:37:20.695Z,84.01
2023-03-07T01:38:20.726Z,84.49
2023-03-07T01:39:20.754Z,84.88
2023-03-07T01:41:20.804Z,84.68
2023-03-07T01:42:21.145Z,84.78
2023-03-07T01:44:21.589Z,84.64
2023-03-07T01:46:20.958Z,84.64
2023-03-07T01:47:20.961Z,84.58
2023-03-07T01:49:21.007Z,85.12
2023-03-07T01:50:21.348Z,83.97
2023-03-07T01:51:21.080Z,84.83
2023-03-07T01:52:21.085Z,83.97
2023-03-07T01:53:21.109Z,84.55
2023-03-07T01:54:21.138Z,84.64
2023-03-07T01:55:21.164Z,84.06
2023-03-07T01:56:21.206Z,84.45
2023-03-07T01:57:21.624Z,84.92
2023-03-07T01:58:21.270Z,84.83
2023-03-07T01:59:21.270Z,84.74
2023-03-07T02:00:21.288Z,85.02
2023-03-07T02:01:21.331Z,84.45
2023-03-07T02:02:21.341Z,84.55
2023-03-07T02:03:21.370Z,83.97
2023-03-07T02:04:21.739Z,85.12
2023-03-07T02:05:21.421Z,85.31
2023-03-07T02:06:21.449Z,85.31
2023-03-07T02:07:21.473Z,84.64
2023-03-07T02:08:21.521Z,85.31
2023-03-07T02:09:21.546Z,85.12
2023-03-07T02:10:21.550Z,85.41
2023-03-07T02:11:21.834Z,84.92
2023-03-07T02:12:23.143Z,85.31
2023-03-07T02:13:21.629Z,84.64
2023-03-07T02:14:21.678Z,84.92
2023-03-07T02:15:21.693Z,84.64
2023-03-07T02:16:21.705Z,85.02
2023-03-07T02:17:21.742Z,84.74
2023-03-07T02:18:22.058Z,85.02
2023-03-07T02:19:21.788Z,85.31
2023-03-07T02:20:21.821Z,85.31
2023-03-07T02:21:21.837Z,85.21
2023-03-07T02:22:21.867Z,85.02
2023-03-07T02:23:21.898Z,84.92
2023-03-07T02:24:21.913Z,85.02
2023-03-07T02:25:21.946Z,84.83
2023-03-07T02:26:21.978Z,85.12
2023-03-07T02:27:22.002Z,85.12
2023-03-07T02:28:22.019Z,84.55
2023-03-07T02:29:22.048Z,85.02
2023-03-07T02:30:22.090Z,85.12
2023-03-07T02:32:22.463Z,85.02
2023-03-07T02:33:22.153Z,84.74
2023-03-07T02:34:22.181Z,84.64
2023-03-07T02:35:22.197Z,85.60
2023-03-07T02:36:22.267Z,85.60
2023-03-07T02:37:22.265Z,85.31
2023-03-07T02:38:22.283Z,84.83
2023-03-07T02:39:22.619Z,85.50
2023-03-07T02:40:22.334Z,84.83
2023-03-07T02:41:23.109Z,84.45
2023-03-07T02:42:22.394Z,85.50
2023-03-07T02:43:22.427Z,85.60
2023-03-07T02:44:22.439Z,85.79
2023-03-07T02:45:22.457Z,85.88
2023-03-07T02:46:22.981Z,85.69
2023-03-07T02:47:22.513Z,85.50
2023-03-07T02:48:22.547Z,85.50
2023-03-07T02:49:22.564Z,85.50
2023-03-07T02:51:22.614Z,86.55
2023-03-07T02:52:22.958Z,85.69
2023-03-07T02:53:22.683Z,85.79
2023-03-07T02:54:22.704Z,84.83
2023-03-07T02:55:22.724Z,84.92
2023-03-07T02:56:22.740Z,85.21
2023-03-07T02:57:22.774Z,84.55
2023-03-07T02:58:23.149Z,85.31
2023-03-07T02:59:22.822Z,85.79
2023-03-07T03:00:22.858Z,85.98
2023-03-07T03:01:22.902Z,84.64
2023-03-07T03:02:23.030Z,85.02
2023-03-07T03:03:22.942Z,84.83
2023-03-07T03:05:23.286Z,85.60
2023-03-07T03:06:23.009Z,85.55
2023-03-07T03:07:23.038Z,84.92
2023-03-07T03:08:23.059Z,85.08
2023-03-07T03:09:23.088Z,85.08
2023-03-07T03:10:23.112Z,84.79
2023-03-07T03:11:23.448Z,84.98
2023-03-07T03:12:23.261Z,84.55
2023-03-07T03:13:23.232Z,85.55
2023-03-07T03:14:23.252Z,85.94
2023-03-07T03:15:23.353Z,85.46
2023-03-07T03:16:23.374Z,84.31
2023-03-07T03:17:23.597Z,85.27
2023-03-07T03:18:23.690Z,86.22
2023-03-07T03:19:23.341Z,85.84
2023-03-07T03:20:23.368Z,86.04
2023-03-07T03:21:23.394Z,85.46
2023-03-07T03:22:23.421Z,85.46
2023-03-07T03:23:23.446Z,86.32
2023-03-07T03:24:23.489Z,86.17
2023-03-07T03:25:23.808Z,85.94
2023-03-07T03:28:23.583Z,85.88
2023-03-07T03:29:23.610Z,85.98
2023-03-07T03:30:23.630Z,85.94
2023-03-07T03:31:23.688Z,86.22
2023-03-07T03:32:23.983Z,85.55
2023-03-07T03:33:23.803Z,86.04
2023-03-07T03:34:23.753Z,86.41
2023-03-07T03:35:23.761Z,85.84
2023-03-07T03:36:23.782Z,86.61
2023-03-07T03:38:23.835Z,85.94
2023-03-07T03:40:24.146Z,85.94
2023-03-07T03:41:23.907Z,86.13
2023-03-07T03:42:23.944Z,86.22
2023-03-07T03:43:23.972Z,85.94
2023-03-07T03:44:23.983Z,86.04
2023-03-07T03:45:24.024Z,86.04
2023-03-07T03:46:24.059Z,86.04
2023-03-07T03:47:24.362Z,85.46
2023-03-07T03:49:24.128Z,85.94
2023-03-07T03:50:24.166Z,85.94
2023-03-07T03:51:24.177Z,85.75
2023-03-07T03:52:24.193Z,85.55
2023-03-07T03:53:24.216Z,85.65
2023-03-07T03:54:24.542Z,84.88
2023-03-07T03:55:24.277Z,85.55
2023-03-07T03:56:24.299Z,85.55
2023-03-07T03:57:24.329Z,86.51
2023-03-07T03:58:24.348Z,85.94
2023-03-07T03:59:24.375Z,85.55
2023-03-07T04:00:24.406Z,86.13
2023-03-07T04:01:24.775Z,86.13
2023-03-07T04:02:24.610Z,85.27
2023-03-07T04:03:24.485Z,85.94
2023-03-07T04:04:24.505Z,85.08
2023-03-07T04:05:24.533Z,85.84
2023-03-07T04:07:24.614Z,86.41
2023-03-07T04:08:24.902Z,85.84
2023-03-07T04:09:24.634Z,85.27
2023-03-07T04:10:24.660Z,86.22
2023-03-07T04:11:24.686Z,86.32
2023-03-07T04:12:24.758Z,86.41
2023-03-07T04:13:24.726Z,86.13
2023-03-07T04:14:24.755Z,86.04
2023-03-07T04:15:25.094Z,86.51
2023-03-07T04:16:24.964Z,86.04
2023-03-07T04:17:24.832Z,84.50
2023-03-07T04:18:24.882Z,84.79
2023-03-07T04:19:24.900Z,85.84
2023-03-07T04:21:24.938Z,86.80
2023-03-07T04:22:25.286Z,85.84
2023-03-07T04:23:25.012Z,85.46
2023-03-07T04:24:25.011Z,85.46
2023-03-07T04:25:25.071Z,86.13
2023-03-07T04:26:25.095Z,85.55
2023-03-07T04:27:25.091Z,85.36
2023-03-07T04:28:25.112Z,85.17
2023-03-07T04:29:25.443Z,85.36
2023-03-07T04:30:25.171Z,85.94
2023-03-07T04:31:25.243Z,86.51
2023-03-07T04:32:25.280Z,86.04
2023-03-07T04:33:25.255Z,86.13
2023-03-07T04:34:25.291Z,85.75
2023-03-07T04:35:25.310Z,86.41
2023-03-07T04:36:25.570Z,85.94
2023-03-07T04:38:25.385Z,85.75
2023-03-07T04:39:25.428Z,86.51
2023-03-07T04:40:25.419Z,85.46
2023-03-07T04:41:25.454Z,85.75
2023-03-07T04:42:25.476Z,86.04
2023-03-07T04:43:25.802Z,85.94
2023-03-07T04:44:25.532Z,85.55
2023-03-07T04:45:25.554Z,85.08
2023-03-07T04:46:25.580Z,85.94
2023-03-07T04:47:25.602Z,85.65
2023-03-07T04:48:25.637Z,86.13
2023-03-07T04:49:25.653Z,85.08
2023-03-07T04:50:25.987Z,85.55
2023-03-07T04:51:25.816Z,86.22
2023-03-07T04:52:25.728Z,86.80
2023-03-07T04:53:25.760Z,86.61
2023-03-07T04:54:25.917Z,86.80
2023-03-07T04:55:25.856Z,86.61
2023-03-07T04:56:25.833Z,86.13
2023-03-07T04:57:26.201Z,86.32
2023-03-07T04:58:25.902Z,86.61
2023-03-07T04:59:25.909Z,86.04
2023-03-07T05:00:25.947Z,85.55
2023-03-07T05:01:25.998Z,85.94
2023-03-07T05:02:26.005Z,85.84
2023-03-07T05:03:26.012Z,86.04
2023-03-07T05:04:26.384Z,85.94
2023-03-07T05:05:26.067Z,86.32
2023-03-07T05:06:26.107Z,86.13
2023-03-07T05:07:26.176Z,86.51
2023-03-07T05:08:26.143Z,86.22
2023-03-07T05:09:26.187Z,86.04
2023-03-07T05:10:26.200Z,85.46
2023-03-07T05:11:26.547Z,85.94
2023-03-07T05:12:26.250Z,85.94
2023-03-07T05:13:26.281Z,85.36
2023-03-07T05:14:26.295Z,85.65
2023-03-07T05:15:26.324Z,85.75
2023-03-07T05:16:26.363Z,85.94
2023-03-07T05:17:26.624Z,85.94
2023-03-07T05:18:26.412Z,85.55
2023-03-07T05:20:26.459Z,85.94
2023-03-07T05:21:26.590Z,86.13
2023-03-07T05:22:27.317Z,86.13
2023-03-07T05:23:26.826Z,86.61
2023-03-07T05:24:26.550Z,86.51
2023-03-07T05:25:26.576Z,86.32
2023-03-07T05:26:26.609Z,86.04
2023-03-07T05:27:26.653Z,85.27
2023-03-07T05:28:26.652Z,85.36
2023-03-07T05:29:26.992Z,85.84
2023-03-07T05:30:26.757Z,85.55
2023-03-07T05:31:26.790Z,85.94
2023-03-07T05:32:26.814Z,85.55
2023-03-07T05:33:26.827Z,86.51
2023-03-07T05:34:26.817Z,86.70
2023-03-07T05:35:26.963Z,86.22
2023-03-07T05:37:27.342Z,85.84
2023-03-07T05:38:26.932Z,84.88
2023-03-07T05:39:26.945Z,85.36
2023-03-07T05:40:26.966Z,86.32
2023-03-07T05:41:26.995Z,86.22
2023-03-07T05:43:27.159Z,86.32
2023-03-07T05:44:27.397Z,85.65
2023-03-07T05:45:27.089Z,86.41
2023-03-07T05:46:27.166Z,86.41
2023-03-07T05:47:27.150Z,85.94
2023-03-07T05:48:27.170Z,85.55
2023-03-07T05:49:27.213Z,86.32
2023-03-07T05:50:27.539Z,86.70
2023-03-07T05:51:27.252Z,86.80
2023-03-07T05:52:27.284Z,86.13
2023-03-07T05:53:27.325Z,87.08
2023-03-07T05:54:27.336Z,86.32
2023-03-07T05:55:27.366Z,86.22
2023-03-07T05:56:27.425Z,86.04
2023-03-07T05:57:27.651Z,85.27
2023-03-07T05:58:27.427Z,84.50
2023-03-07T05:59:27.824Z,85.36
2023-03-07T06:00:27.482Z,86.04
2023-03-07T06:01:27.511Z,86.22
2023-03-07T06:02:27.562Z,86.13
2023-03-07T06:03:27.631Z,85.94
2023-03-07T06:04:27.889Z,86.13
2023-03-07T06:05:27.611Z,86.41
2023-03-07T06:06:27.741Z,85.55
2023-03-07T06:07:27.793Z,85.36
2023-03-07T06:08:27.800Z,86.70
2023-03-07T06:09:27.798Z,86.22
2023-03-07T06:10:27.894Z,86.70
2023-03-07T06:11:28.081Z,85.84
2023-03-07T06:12:27.792Z,85.84
2023-03-07T06:13:27.819Z,85.75
2023-03-07T06:14:27.840Z,85.27
2023-03-07T06:15:27.892Z,86.32
2023-03-07T06:16:27.995Z,85.36
2023-03-07T06:17:28.025Z,85.46
2023-03-07T06:18:28.261Z,84.88
2023-03-07T06:19:27.980Z,84.50
2023-03-07T06:20:27.994Z,86.04
2023-03-07T06:21:28.017Z,85.65
2023-03-07T06:22:28.070Z,86.13
2023-03-07T06:23:28.074Z,85.36
2023-03-07T06:24:28.114Z,86.04
2023-03-07T06:25:28.435Z,85.08
2023-03-07T06:26:28.146Z,86.04
2023-03-07T06:27:28.176Z,85.55
2023-03-07T06:28:28.203Z,84.50
2023-03-07T06:30:28.260Z,85.36
2023-03-07T06:31:28.388Z,84.41
2023-03-07T06:32:28.580Z,84.79
2023-03-07T06:33:28.333Z,84.69
2023-03-07T06:34:28.371Z,84.79
2023-03-07T06:35:28.387Z,85.46
2023-03-07T06:36:28.413Z,85.75
2023-03-07T06:37:28.441Z,84.79
2023-03-07T06:38:28.462Z,85.17
2023-03-07T06:39:31.266Z,84.79
2023-03-07T06:40:28.525Z,85.08
2023-03-07T06:41:28.538Z,85.75
2023-03-07T06:42:28.555Z,85.65
2023-03-07T06:43:28.580Z,86.41
2023-03-07T06:44:28.615Z,86.13
2023-03-07T06:46:28.980Z,86.13
2023-03-07T06:47:28.756Z,86.90
2023-03-07T06:48:28.756Z,87.18
2023-03-07T06:49:28.741Z,87.27
2023-03-07T06:51:28.789Z,86.32
2023-03-07T06:52:28.815Z,86.32
2023-03-07T06:53:29.142Z,85.84
2023-03-07T06:54:28.876Z,85.94
2023-03-07T06:55:28.899Z,86.22
2023-03-07T06:56:28.914Z,86.70
2023-03-07T06:57:28.946Z,85.94
2023-03-07T06:58:28.971Z,86.32
2023-03-07T07:00:30.338Z,85.75
2023-03-07T07:01:29.123Z,85.94
2023-03-07T07:02:29.316Z,86.61
2023-03-07T07:03:29.131Z,86.61
2023-03-07T07:04:29.124Z,86.04
2023-03-07T07:05:29.166Z,86.46
2023-03-07T07:06:29.178Z,86.90
2023-03-07T07:07:29.513Z,86.61
2023-03-07T07:08:29.245Z,86.32
2023-03-07T07:09:29.262Z,86.13
2023-03-07T07:10:29.295Z,86.65
2023-03-07T07:11:29.306Z,86.13
2023-03-07T07:12:29.330Z,86.22
2023-03-07T07:13:29.368Z,86.13
2023-03-07T07:14:29.699Z,85.94
2023-03-07T07:15:29.412Z,86.46
2023-03-07T07:16:29.581Z,85.79
2023-03-07T07:17:29.470Z,86.22
2023-03-07T07:18:29.481Z,86.51
2023-03-07T07:19:29.537Z,86.90
2023-03-07T07:20:29.843Z,87.76
2023-03-07T07:21:29.672Z,87.32
2023-03-07T07:22:29.592Z,86.90
2023-03-07T07:23:29.616Z,86.41
2023-03-07T07:24:29.659Z,86.41
2023-03-07T07:25:29.693Z,85.36
2023-03-07T07:26:30.006Z,85.79
2023-03-07T07:27:29.706Z,85.60
2023-03-07T07:28:29.752Z,85.31
2023-03-07T07:29:29.761Z,86.27
2023-03-07T07:30:29.794Z,86.27
2023-03-07T07:31:29.836Z,85.60
2023-03-07T07:32:30.346Z,85.31
2023-03-07T07:33:29.905Z,85.88
2023-03-07T07:34:29.892Z,86.36
2023-03-07T07:36:29.962Z,84.92
2023-03-07T07:37:29.974Z,84.55
2023-03-07T07:38:30.012Z,86.08
2023-03-07T07:39:30.327Z,84.92
2023-03-07T07:40:30.060Z,85.50
2023-03-07T07:41:30.071Z,85.50
2023-03-07T07:42:32.205Z,85.46
2023-03-07T07:43:30.135Z,85.41
2023-03-07T07:44:30.163Z,85.98
2023-03-07T07:45:30.177Z,86.27
2023-03-07T07:46:30.511Z,86.17
2023-03-07T07:47:30.235Z,85.12
2023-03-07T07:48:30.259Z,85.02
2023-03-07T07:49:30.297Z,85.69
2023-03-07T07:50:30.311Z,85.88
2023-03-07T07:51:30.348Z,85.41
2023-03-07T07:52:30.400Z,86.08
2023-03-07T07:53:30.693Z,85.60
2023-03-07T07:54:30.481Z,84.55
2023-03-07T07:55:30.449Z,85.50
2023-03-07T07:56:30.465Z,85.69
2023-03-07T07:57:30.498Z,85.12
2023-03-07T07:58:30.515Z,85.02
2023-03-07T07:59:30.541Z,85.31
2023-03-07T08:00:30.886Z,84.74
2023-03-07T08:01:30.599Z,84.55
2023-03-07T08:02:30.707Z,85.60
2023-03-07T08:04:30.671Z,85.60
2023-03-07T08:05:30.851Z,84.83
2023-03-07T08:06:30.728Z,84.55
2023-03-07T08:07:31.073Z,85.50
2023-03-07T08:08:30.991Z,84.83
2023-03-07T08:09:30.853Z,85.02
2023-03-07T08:10:30.835Z,85.12
2023-03-07T08:11:30.862Z,84.64
2023-03-07T08:12:30.896Z,84.74
2023-03-07T08:14:31.232Z,84.92
2023-03-07T08:15:30.982Z,85.21
2023-03-07T08:16:30.985Z,84.92
2023-03-07T08:17:31.048Z,85.21
2023-03-07T08:19:31.068Z,84.83
2023-03-07T08:20:31.108Z,84.45
2023-03-07T08:21:31.122Z,85.31
2023-03-07T08:23:31.171Z,84.83
2023-03-07T08:24:40.181Z,85.02
2023-03-07T08:25:31.220Z,84.55
2023-03-07T08:26:31.247Z,84.45
2023-03-07T08:27:31.573Z,84.55
2023-03-07T08:28:31.299Z,84.06
2023-03-07T08:29:31.342Z,84.16
2023-03-07T08:30:31.349Z,84.16
2023-03-07T08:31:31.488Z,84.64
2023-03-07T08:32:31.468Z,85.12
2023-03-07T08:33:31.428Z,84.16
2023-03-07T08:34:31.464Z,83.78
2023-03-07T08:35:31.621Z,84.64
2023-03-07T08:36:31.521Z,84.83
2023-03-07T08:37:31.534Z,84.55
2023-03-07T08:38:31.565Z,84.06
2023-03-07T08:39:31.595Z,84.45
2023-03-07T08:40:31.988Z,84.06
2023-03-07T08:41:31.641Z,84.55
2023-03-07T08:42:31.703Z,84.55
2023-03-07T08:43:31.787Z,84.55
2023-03-07T08:44:31.707Z,84.92
2023-03-07T08:45:31.746Z,83.87
2023-03-07T08:46:31.845Z,84.74
2023-03-07T08:47:31.788Z,84.74
2023-03-07T08:48:31.824Z,84.06
2023-03-07T08:49:31.848Z,84.55
2023-03-07T08:50:31.878Z,84.26
2023-03-07T08:51:31.886Z,84.45
2023-03-07T08:52:31.922Z,84.06
2023-03-07T08:53:31.940Z,83.78
2023-03-07T08:54:31.966Z,83.68
2023-03-07T08:55:32.005Z,83.11
2023-03-07T08:56:32.044Z,83.39
2023-03-07T08:57:32.060Z,84.06
2023-03-07T08:58:32.371Z,83.39
2023-03-07T08:59:32.102Z,83.39
2023-03-07T09:00:32.129Z,83.20
2023-03-07T09:01:32.185Z,83.20
2023-03-07T09:02:32.187Z,82.63
2023-03-07T09:03:32.222Z,83.01
2023-03-07T09:04:32.297Z,82.43
2023-03-07T09:05:32.584Z,82.43
2023-03-07T09:06:32.307Z,83.49
2023-03-07T09:07:32.326Z,82.63
2023-03-07T09:09:32.366Z,82.73
2023-03-07T09:11:32.405Z,83.11
2023-03-07T09:12:32.770Z,82.92
2023-03-07T09:13:36.108Z,82.43
2023-03-07T09:14:32.489Z,82.53
2023-03-07T09:15:32.521Z,82.63
2023-03-07T09:17:32.583Z,82.43
2023-03-07T09:18:32.605Z,82.63
2023-03-07T09:19:32.922Z,82.63
2023-03-07T09:20:32.647Z,82.53
2023-03-07T09:21:32.673Z,82.63
2023-03-07T09:22:33.064Z,82.92
2023-03-07T09:23:32.736Z,83.11
2023-03-07T09:24:32.759Z,82.63
2023-03-07T09:25:32.786Z,82.82
2023-03-07T09:26:33.097Z,82.63
2023-03-07T09:28:32.876Z,82.63
2023-03-07T09:29:32.885Z,82.82
2023-03-07T09:30:32.909Z,82.53
2023-03-07T09:31:32.989Z,82.43
2023-03-07T09:32:33.005Z,82.43
2023-03-07T09:33:33.294Z,82.73
2023-03-07T09:34:33.024Z,82.82
2023-03-07T09:35:33.117Z,82.06
2023-03-07T09:38:33.118Z,82.53
2023-03-07T09:39:33.156Z,82.53
2023-03-07T09:40:33.469Z,82.24
2023-03-07T09:42:33.213Z,82.43
2023-03-07T09:44:33.314Z,82.53
2023-03-07T09:45:33.338Z,82.53
2023-03-07T09:46:33.321Z,81.77
2023-03-07T09:47:33.656Z,82.24
2023-03-07T09:49:33.418Z,82.15
2023-03-07T09:50:33.430Z,81.77
2023-03-07T09:51:33.454Z,81.57
2023-03-07T09:52:33.484Z,81.48
2023-03-07T09:53:33.500Z,82.24
2023-03-07T09:54:33.530Z,82.82
2023-03-07T09:55:33.613Z,82.43
2023-03-07T09:56:33.588Z,82.43
2023-03-07T09:58:33.645Z,82.63
2023-03-07T09:59:33.674Z,82.34
2023-03-07T10:00:34.026Z,82.34
2023-03-07T10:01:33.708Z,81.96
2023-03-07T10:02:33.750Z,81.67
2023-03-07T10:03:33.851Z,81.86
2023-03-07T10:04:33.816Z,81.96
2023-03-07T10:05:33.817Z,82.34
2023-03-07T10:06:34.091Z,82.06
2023-03-07T10:08:33.903Z,82.24
2023-03-07T10:09:33.918Z,82.24
2023-03-07T10:10:33.947Z,82.06
2023-03-07T10:12:34.299Z,82.15
2023-03-07T10:13:34.027Z,82.43
2023-03-07T10:14:34.100Z,82.43
2023-03-07T10:15:34.195Z,82.43
2023-03-07T10:16:34.238Z,82.92
2023-03-07T10:17:34.137Z,82.92
2023-03-07T10:18:34.453Z,82.53
2023-03-07T10:19:34.180Z,82.34
2023-03-07T10:20:34.206Z,82.06
2023-03-07T10:21:34.271Z,82.43
2023-03-07T10:22:34.269Z,81.77
2023-03-07T10:23:34.285Z,81.67
2023-03-07T10:24:34.321Z,82.53
2023-03-07T10:25:34.643Z,82.63
2023-03-07T10:26:34.364Z,82.53
2023-03-07T10:27:34.392Z,82.15
2023-03-07T10:28:34.414Z,82.06
2023-03-07T10:29:34.463Z,82.06
2023-03-07T10:31:34.865Z,81.86
2023-03-07T10:32:34.558Z,81.96
2023-03-07T10:33:34.593Z,82.34
2023-03-07T10:34:34.571Z,82.34
2023-03-07T10:35:34.602Z,82.06
2023-03-07T10:36:34.706Z,82.34
2023-03-07T10:37:34.648Z,82.53
2023-03-07T10:38:35.001Z,82.15
2023-03-07T10:40:34.749Z,81.86
2023-03-07T10:41:34.754Z,81.77
2023-03-07T10:42:34.781Z,82.53
2023-03-07T10:43:34.794Z,81.77
2023-03-07T10:44:34.827Z,81.77
2023-03-07T10:45:35.182Z,82.43
2023-03-07T10:46:36.635Z,82.15
2023-03-07T10:47:34.938Z,81.67
2023-03-07T10:49:34.977Z,82.63
2023-03-07T10:50:34.975Z,82.53
2023-03-07T10:51:35.021Z,81.86
2023-03-07T10:52:35.039Z,81.96
2023-03-07T10:53:35.063Z,81.96
2023-03-07T10:54:35.101Z,81.48
2023-03-07T10:55:35.136Z,81.96
2023-03-07T10:56:35.129Z,81.38
2023-03-07T10:57:35.497Z,81.29
2023-03-07T10:58:35.482Z,81.67
2023-03-07T10:59:35.208Z,82.24
2023-03-07T11:00:35.238Z,82.53
2023-03-07T11:01:35.299Z,81.86
2023-03-07T11:02:35.293Z,82.20
2023-03-07T11:03:51.070Z,82.53
2023-03-07T11:04:35.370Z,82.43
2023-03-07T11:05:35.389Z,82.63
2023-03-07T11:07:35.431Z,82.40
2023-03-07T11:08:35.439Z,82.59
2023-03-07T11:10:35.745Z,82.49
2023-03-07T11:11:35.518Z,82.59
2023-03-07T11:12:35.554Z,82.78
2023-03-07T11:13:35.591Z,83.45
2023-03-07T11:14:35.617Z,83.26
2023-03-07T11:15:35.681Z,82.40
2023-03-07T11:16:36.059Z,83.06
2023-03-07T11:17:35.683Z,82.78
2023-03-07T11:18:35.700Z,82.87
2023-03-07T11:19:35.724Z,83.26
2023-03-07T11:20:35.758Z,83.06
2023-03-07T11:21:35.813Z,83.16
2023-03-07T11:22:35.829Z,82.87
2023-03-07T11:23:35.828Z,83.64
2023-03-07T11:24:35.854Z,83.83
2023-03-07T11:25:35.873Z,83.73
2023-03-07T11:26:35.921Z,83.36
2023-03-07T11:27:35.986Z,83.45
2023-03-07T11:28:35.960Z,84.12
2023-03-07T11:29:36.294Z,83.64
2023-03-07T11:30:36.008Z,83.45
2023-03-07T11:31:36.051Z,83.73
2023-03-07T11:32:36.195Z,84.12
2023-03-07T11:33:36.097Z,83.93
2023-03-07T11:34:36.189Z,83.73
2023-03-07T11:35:36.189Z,83.73
2023-03-07T11:36:36.531Z,83.93
2023-03-07T11:37:36.249Z,83.64
2023-03-07T11:38:36.216Z,83.06
2023-03-07T11:39:36.237Z,82.87
2023-03-07T11:40:36.263Z,83.16
2023-03-07T11:41:36.306Z,83.59
2023-03-07T11:42:36.326Z,83.30
2023-03-07T11:43:36.668Z,83.64
2023-03-07T11:44:36.362Z,83.36
2023-03-07T11:45:36.411Z,83.64
2023-03-07T11:46:36.453Z,84.31
2023-03-07T11:47:36.449Z,83.54
2023-03-07T11:48:36.478Z,83.73
2023-03-07T11:49:36.493Z,83.36
2023-03-07T11:50:36.824Z,83.06
2023-03-07T11:51:36.559Z,83.64
2023-03-07T11:52:36.575Z,83.49
2023-03-07T11:54:36.668Z,83.39
2023-03-07T11:55:36.674Z,82.97
2023-03-07T11:56:36.703Z,83.26
2023-03-07T11:57:37.009Z,83.49
2023-03-07T11:58:36.746Z,83.39
2023-03-07T11:59:36.773Z,83.78
2023-03-07T12:00:36.794Z,83.78
2023-03-07T12:01:36.819Z,83.78
2023-03-07T12:02:36.938Z,83.78
2023-03-07T12:03:36.882Z,83.39
2023-03-07T12:04:37.199Z,83.39
2023-03-07T12:05:36.967Z,83.39
2023-03-07T12:06:36.952Z,82.92
2023-03-07T12:08:36.992Z,83.11
2023-03-07T12:10:37.080Z,83.11
2023-03-07T12:11:37.321Z,83.11
2023-03-07T12:12:37.110Z,83.30
2023-03-07T12:14:37.145Z,82.63
2023-03-07T12:15:37.180Z,82.53
2023-03-07T12:16:37.240Z,82.43
2023-03-07T12:17:37.252Z,82.92
2023-03-07T12:18:37.567Z,82.63
2023-03-07T12:19:37.284Z,82.53
2023-03-07T12:20:37.314Z,82.82
2023-03-07T12:21:37.336Z,83.11
2023-03-07T12:22:37.410Z,82.82
2023-03-07T12:23:37.381Z,82.63
2023-03-07T12:24:37.663Z,82.24
2023-03-07T12:25:37.442Z,82.53
2023-03-07T12:26:37.482Z,82.73
2023-03-07T12:27:37.506Z,82.92
2023-03-07T12:28:37.515Z,83.30
2023-03-07T12:29:37.548Z,82.63
2023-03-07T12:30:37.868Z,83.30
2023-03-07T12:31:37.796Z,83.01
2023-03-07T12:32:37.767Z,83.59
2023-03-07T12:33:37.801Z,83.78
2023-03-07T12:34:37.675Z,83.59
2023-03-07T12:35:37.739Z,82.92
2023-03-07T12:36:37.845Z,82.92
2023-03-07T12:37:37.745Z,83.01
2023-03-07T12:38:37.776Z,82.92
2023-03-07T12:39:37.803Z,83.78
2023-03-07T12:40:37.822Z,83.68
2023-03-07T12:41:37.851Z,83.68
2023-03-07T12:42:38.208Z,83.97
2023-03-07T12:43:37.901Z,83.68
2023-03-07T12:44:37.941Z,83.68
2023-03-07T12:45:38.072Z,83.11
2023-03-07T12:46:37.993Z,83.39
2023-03-07T12:47:38.018Z,83.30
2023-03-07T12:48:38.042Z,82.92
2023-03-07T12:49:49.141Z,83.30
2023-03-07T12:50:38.085Z,83.20
2023-03-07T12:52:38.155Z,83.20
2023-03-07T12:53:38.204Z,83.68
2023-03-07T12:56:38.544Z,83.68
2023-03-07T12:57:38.272Z,82.92
2023-03-07T12:58:38.353Z,82.92
2023-03-07T12:59:38.388Z,82.63
2023-03-07T13:00:38.354Z,82.82
2023-03-07T13:01:38.413Z,83.39
2023-03-07T13:02:40.768Z,82.92
2023-03-07T13:03:38.738Z,82.53
2023-03-07T13:04:38.584Z,83.30
2023-03-07T13:05:38.494Z,83.11
2023-03-07T13:06:38.513Z,83.20
2023-03-07T13:07:38.535Z,83.59
2023-03-07T13:08:38.555Z,83.39
2023-03-07T13:09:38.598Z,82.43
2023-03-07T13:10:38.909Z,83.20
2023-03-07T13:11:38.739Z,83.01
2023-03-07T13:12:38.668Z,83.30
2023-03-07T13:13:38.693Z,83.11
2023-03-07T13:14:38.738Z,83.39
2023-03-07T13:15:38.740Z,83.11
2023-03-07T13:16:38.826Z,83.39
2023-03-07T13:17:39.085Z,83.20
2023-03-07T13:18:38.817Z,83.20
2023-03-07T13:19:38.840Z,83.20
2023-03-07T13:20:38.877Z,83.30
2023-03-07T13:21:38.906Z,83.68
2023-03-07T13:22:38.932Z,83.78
2023-03-07T13:23:38.942Z,82.82
2023-03-07T13:24:39.378Z,83.20
2023-03-07T13:25:38.996Z,83.11
2023-03-07T13:26:39.028Z,83.49
2023-03-07T13:27:39.062Z,83.39
2023-03-07T13:28:39.098Z,83.39
2023-03-07T13:29:39.100Z,83.30
2023-03-07T13:30:39.182Z,83.49
2023-03-07T13:31:39.466Z,83.20
2023-03-07T13:32:39.199Z,83.11
2023-03-07T13:33:39.201Z,83.11
2023-03-07T13:34:39.235Z,82.73
2023-03-07T13:35:39.407Z,82.53
2023-03-07T13:36:39.302Z,82.63
2023-03-07T13:38:39.644Z,83.11
2023-03-07T13:39:39.373Z,83.11
2023-03-07T13:40:39.386Z,83.11
2023-03-07T13:41:39.411Z,83.11
2023-03-07T13:42:39.441Z,83.01
2023-03-07T13:43:39.467Z,83.30
2023-03-07T13:44:39.496Z,82.34
2023-03-07T13:45:40.036Z,82.82
2023-03-07T13:46:39.601Z,83.20
2023-03-07T13:47:39.576Z,83.20
2023-03-07T13:50:39.660Z,83.01
2023-03-07T13:51:39.992Z,83.11
2023-03-07T13:52:39.738Z,83.11
2023-03-07T13:53:39.751Z,83.20
2023-03-07T13:55:39.790Z,83.20
2023-03-07T13:56:39.806Z,83.11
2023-03-07T13:57:40.137Z,83.11
2023-03-07T13:58:39.863Z,83.11
2023-03-07T14:01:39.986Z,83.20